Signal Hill, California
Current Conditions -  °F | °C
As of 6:06 PM on Monday 22 Dec 2014 (Local Time) from KLGB Reporting Station
Haze Haze  
Wind Chill: 16°   Ceiling: 200
Heat Index: 16°   Visibility: 0.75mi
Dew Point: 15°   Wind: 5mph
Humidity: 96%   Direction: 170°S
Pressure: 29.96"   Gusts: NA
Location:  33.8°N, 118.16°W
Report Text: KLGB 230206Z 17004KT 3/4SM R30/2000V4000FT BR VV002 16/15 A2996 RMK AO2 T01560150
Loading
Personal Weather Stations






























Interactive Weather Map New forecast layout! Learn more

10-Day Weather Forecast

Advertisements
Track Severe Weather on mobile